Terminal Aerodrome Forecast
Issued by NWS Wilmington, NC

Home | Current Version | Previous Version | Text Only | Print | Product List | Glossary On
Versions: 1 2 3 4 5 6 7 8 9 10 11 12 13 14 15 16 17 18 19 20 21 22 23 24 25 26 27 28 29
000
FTUS42 KILM 171700
TAFMYR
TAF
KMYR 171728Z 1718/1818 12006KT P6SM VCSH SCT025 BKN040
     FM180200 05003KT P6SM SCT020 BKN060
     FM180500 04003KT 3SM BR BKN006 BKN020
     FM181000 VRB02KT 1SM BR BKN002 OVC012
     FM181300 04005KT 4SM BR BKN005 BKN020
     FM181600 09006KT P6SM SCT025 BKN040=

USA.gov is the U.S. government's official web portal to all federal, state and local government web resources and services.